sensor_id;sensor_type;location;lat;lon;timestamp;pressure;altitude;pressure_sealevel;temperature;humidity
2841;BME280;53423;49.224;12.074;2023-03-25T00:00:14;97109.13;;;9.83;68.36
2841;BME280;53423;49.224;12.074;2023-03-25T00:02:45;97108.09;;;9.92;67.80
2841;BME280;53423;49.224;12.074;2023-03-25T00:05:16;97107.22;;;10.00;67.82
2841;BME280;53423;49.224;12.074;2023-03-25T00:07:47;97104.13;;;9.96;67.38
2841;BME280;53423;49.224;12.074;2023-03-25T00:10:16;97101.19;;;9.99;67.43
2841;BME280;53423;49.224;12.074;2023-03-25T00:12:44;97096.22;;;9.82;67.77
2841;BME280;53423;49.224;12.074;2023-03-25T00:15:12;97098.00;;;9.81;67.51
2841;BME280;53423;49.224;12.074;2023-03-25T00:17:42;97090.47;;;9.86;67.04
2841;BME280;53423;49.224;12.074;2023-03-25T00:20:11;97102.94;;;9.76;67.63
2841;BME280;53423;49.224;12.074;2023-03-25T00:22:41;97103.44;;;9.80;67.46
2841;BME280;53423;49.224;12.074;2023-03-25T00:25:11;97102.88;;;9.92;66.62
2841;BME280;53423;49.224;12.074;2023-03-25T00:27:43;97106.03;;;9.80;66.43
2841;BME280;53423;49.224;12.074;2023-03-25T00:30:14;97100.41;;;9.68;67.24
2841;BME280;53423;49.224;12.074;2023-03-25T00:32:43;97108.59;;;9.88;66.81
2841;BME280;53423;49.224;12.074;2023-03-25T00:35:16;97115.38;;;9.82;66.93
2841;BME280;53423;49.224;12.074;2023-03-25T00:37:47;97106.75;;;9.74;66.96
2841;BME280;53423;49.224;12.074;2023-03-25T00:40:26;97105.09;;;9.73;66.96
2841;BME280;53423;49.224;12.074;2023-03-25T00:42:55;97103.53;;;9.64;66.69
2841;BME280;53423;49.224;12.074;2023-03-25T00:45:23;97105.34;;;9.63;66.94
2841;BME280;53423;49.224;12.074;2023-03-25T00:47:51;97107.41;;;9.76;66.51
2841;BME280;53423;49.224;12.074;2023-03-25T00:50:19;97106.09;;;9.72;66.80
2841;BME280;53423;49.224;12.074;2023-03-25T00:52:49;97101.41;;;9.59;67.01
2841;BME280;53423;49.224;12.074;2023-03-25T00:55:19;97094.91;;;9.55;66.92
2841;BME280;53423;49.224;12.074;2023-03-25T00:57:47;97101.97;;;9.77;66.57
2841;BME280;53423;49.224;12.074;2023-03-25T01:00:16;97095.81;;;9.70;66.47
2841;BME280;53423;49.224;12.074;2023-03-25T01:02:45;97094.44;;;9.82;66.91
2841;BME280;53423;49.224;12.074;2023-03-25T01:05:19;97090.88;;;9.75;66.56
2841;BME280;53423;49.224;12.074;2023-03-25T01:07:49;97086.22;;;9.85;65.65
2841;BME280;53423;49.224;12.074;2023-03-25T01:10:17;97087.03;;;9.86;65.94
2841;BME280;53423;49.224;12.074;2023-03-25T01:12:45;97085.50;;;9.91;66.44
2841;BME280;53423;49.224;12.074;2023-03-25T01:15:13;97092.31;;;10.00;65.77
2841;BME280;53423;49.224;12.074;2023-03-25T01:17:41;97084.44;;;10.09;65.15
2841;BME280;53423;49.224;12.074;2023-03-25T01:20:10;97081.03;;;10.00;65.14
2841;BME280;53423;49.224;12.074;2023-03-25T01:22:38;97081.69;;;10.02;64.62
2841;BME280;53423;49.224;12.074;2023-03-25T01:25:08;97079.94;;;9.94;65.90
2841;BME280;53423;49.224;12.074;2023-03-25T01:27:36;97075.22;;;9.90;65.85
2841;BME280;53423;49.224;12.074;2023-03-25T01:30:04;97070.63;;;9.69;66.23
2841;BME280;53423;49.224;12.074;2023-03-25T01:32:33;97075.75;;;9.85;65.99
2841;BME280;53423;49.224;12.074;2023-03-25T01:35:01;97069.19;;;9.89;66.15
2841;BME280;53423;49.224;12.074;2023-03-25T01:37:30;97072.88;;;9.95;65.66
2841;BME280;53423;49.224;12.074;2023-03-25T01:39:59;97064.34;;;9.78;65.85
2841;BME280;53423;49.224;12.074;2023-03-25T01:42:29;97062.75;;;9.69;66.04
2841;BME280;53423;49.224;12.074;2023-03-25T01:45:21;97068.16;;;9.68;65.96
2841;BME280;53423;49.224;12.074;2023-03-25T01:47:52;97064.94;;;9.66;66.84
2841;BME280;53423;49.224;12.074;2023-03-25T01:50:22;97073.53;;;9.74;66.98
2841;BME280;53423;49.224;12.074;2023-03-25T01:52:56;97075.69;;;9.71;67.32
2841;BME280;53423;49.224;12.074;2023-03-25T01:55:28;97067.63;;;9.50;67.59
2841;BME280;53423;49.224;12.074;2023-03-25T01:58:02;97068.94;;;9.54;68.65
2841;BME280;53423;49.224;12.074;2023-03-25T02:00:33;97065.56;;;9.68;68.39
2841;BME280;53423;49.224;12.074;2023-03-25T02:03:01;97063.19;;;9.81;67.97
2841;BME280;53423;49.224;12.074;2023-03-25T02:05:34;97064.94;;;9.66;68.39
2841;BME280;53423;49.224;12.074;2023-03-25T02:08:05;97061.31;;;9.67;68.70
2841;BME280;53423;49.224;12.074;2023-03-25T02:10:35;97055.50;;;9.79;68.59
2841;BME280;53423;49.224;12.074;2023-03-25T02:13:05;97051.69;;;9.67;68.75
2841;BME280;53423;49.224;12.074;2023-03-25T02:15:44;97055.72;;;9.70;67.95
2841;BME280;53423;49.224;12.074;2023-03-25T02:18:25;97052.19;;;9.63;68.38
2841;BME280;53423;49.224;12.074;2023-03-25T02:21:24;97050.50;;;9.70;68.53
2841;BME280;53423;49.224;12.074;2023-03-25T02:27:19;97058.19;;;9.71;67.84
2841;BME280;53423;49.224;12.074;2023-03-25T02:30:08;97049.00;;;9.75;67.98
2841;BME280;53423;49.224;12.074;2023-03-25T02:32:56;97051.31;;;9.70;68.32
2841;BME280;53423;49.224;12.074;2023-03-25T02:35:43;97047.81;;;9.78;67.87
2841;BME280;53423;49.224;12.074;2023-03-25T02:38:27;97048.88;;;9.69;67.70
2841;BME280;53423;49.224;12.074;2023-03-25T02:41:03;97042.31;;;9.50;68.09
2841;BME280;53423;49.224;12.074;2023-03-25T02:43:38;97047.38;;;9.52;68.36
2841;BME280;53423;49.224;12.074;2023-03-25T02:46:11;97045.50;;;9.60;67.89
2841;BME280;53423;49.224;12.074;2023-03-25T02:48:46;97040.44;;;9.59;67.86
2841;BME280;53423;49.224;12.074;2023-03-25T02:51:22;97040.16;;;9.54;67.82
2841;BME280;53423;49.224;12.074;2023-03-25T02:53:55;97037.34;;;9.33;68.03
2841;BME280;53423;49.224;12.074;2023-03-25T02:56:25;97028.69;;;9.32;67.88
2841;BME280;53423;49.224;12.074;2023-03-25T02:58:59;97027.81;;;9.40;67.88
2841;BME280;53423;49.224;12.074;2023-03-25T03:01:29;97028.06;;;9.53;67.16
2841;BME280;53423;49.224;12.074;2023-03-25T03:04:00;97020.25;;;9.45;67.40
2841;BME280;53423;49.224;12.074;2023-03-25T03:06:28;97022.34;;;9.27;68.11
2841;BME280;53423;49.224;12.074;2023-03-25T03:09:09;97015.38;;;9.42;68.42
2841;BME280;53423;49.224;12.074;2023-03-25T03:11:50;97018.13;;;9.48;68.08
2841;BME280;53423;49.224;12.074;2023-03-25T03:14:30;97019.06;;;9.55;67.89
2841;BME280;53423;49.224;12.074;2023-03-25T03:17:06;97022.19;;;9.51;68.49
2841;BME280;53423;49.224;12.074;2023-03-25T03:19:39;97033.00;;;9.48;68.01
2841;BME280;53423;49.224;12.074;2023-03-25T03:22:22;97028.34;;;9.35;68.00
2841;BME280;53423;49.224;12.074;2023-03-25T03:25:01;97036.69;;;9.31;68.42
2841;BME280;53423;49.224;12.074;2023-03-25T03:27:31;97028.16;;;9.37;68.41
2841;BME280;53423;49.224;12.074;2023-03-25T03:30:05;97021.56;;;9.49;67.32
2841;BME280;53423;49.224;12.074;2023-03-25T03:32:38;97028.03;;;9.61;66.60
2841;BME280;53423;49.224;12.074;2023-03-25T03:35:12;97023.75;;;9.60;66.41
2841;BME280;53423;49.224;12.074;2023-03-25T03:37:44;97029.94;;;9.67;65.99
2841;BME280;53423;49.224;12.074;2023-03-25T03:40:18;97034.50;;;9.65;66.23
2841;BME280;53423;49.224;12.074;2023-03-25T03:42:51;97038.88;;;9.72;64.74
2841;BME280;53423;49.224;12.074;2023-03-25T03:45:25;97039.41;;;9.45;64.92
2841;BME280;53423;49.224;12.074;2023-03-25T03:47:56;97044.63;;;9.45;65.45
2841;BME280;53423;49.224;12.074;2023-03-25T03:50:30;97039.81;;;9.57;64.94
2841;BME280;53423;49.224;12.074;2023-03-25T03:53:02;97043.84;;;9.67;64.19
2841;BME280;53423;49.224;12.074;2023-03-25T03:55:38;97051.22;;;9.64;64.05
2841;BME280;53423;49.224;12.074;2023-03-25T03:58:10;97048.06;;;9.46;64.85
2841;BME280;53423;49.224;12.074;2023-03-25T04:00:43;97041.59;;;9.56;64.11
2841;BME280;53423;49.224;12.074;2023-03-25T04:03:19;97043.53;;;9.62;64.08
2841;BME280;53423;49.224;12.074;2023-03-25T04:05:53;97054.06;;;9.77;63.46
2841;BME280;53423;49.224;12.074;2023-03-25T04:08:28;97054.00;;;9.62;64.03
2841;BME280;53423;49.224;12.074;2023-03-25T04:11:01;97064.06;;;9.73;63.68
2841;BME280;53423;49.224;12.074;2023-03-25T04:13:36;97071.72;;;9.75;63.25
2841;BME280;53423;49.224;12.074;2023-03-25T04:16:06;97070.91;;;9.74;63.25
2841;BME280;53423;49.224;12.074;2023-03-25T04:18:34;97063.69;;;9.76;63.10
2841;BME280;53423;49.224;12.074;2023-03-25T04:21:02;97061.44;;;9.73;63.64
2841;BME280;53423;49.224;12.074;2023-03-25T04:23:30;97058.13;;;9.57;63.12
2841;BME280;53423;49.224;12.074;2023-03-25T04:26:01;97057.66;;;9.53;63.17
2841;BME280;53423;49.224;12.074;2023-03-25T04:28:29;97054.03;;;9.54;63.29
2841;BME280;53423;49.224;12.074;2023-03-25T04:30:58;97047.38;;;9.52;63.33
2841;BME280;53423;49.224;12.074;2023-03-25T04:33:31;97054.09;;;9.46;63.55
2841;BME280;53423;49.224;12.074;2023-03-25T04:36:01;97060.81;;;9.41;63.59
2841;BME280;53423;49.224;12.074;2023-03-25T04:38:29;97048.75;;;9.40;63.28
2841;BME280;53423;49.224;12.074;2023-03-25T04:40:57;97044.72;;;9.29;63.73
2841;BME280;53423;49.224;12.074;2023-03-25T04:43:27;97048.78;;;9.01;64.29
2841;BME280;53423;49.224;12.074;2023-03-25T04:45:55;97046.84;;;8.95;64.54
2841;BME280;53423;49.224;12.074;2023-03-25T04:48:25;97042.72;;;9.09;64.65
2841;BME280;53423;49.224;12.074;2023-03-25T04:50:56;97051.38;;;9.01;64.49
2841;BME280;53423;49.224;12.074;2023-03-25T04:53:25;97048.03;;;8.85;64.78
2841;BME280;53423;49.224;12.074;2023-03-25T04:55:53;97053.03;;;8.94;64.52
2841;BME280;53423;49.224;12.074;2023-03-25T04:58:21;97045.56;;;9.22;63.41
2841;BME280;53423;49.224;12.074;2023-03-25T05:00:51;97048.78;;;9.01;64.38
2841;BME280;53423;49.224;12.074;2023-03-25T05:03:20;97052.94;;;9.18;63.88
2841;BME280;53423;49.224;12.074;2023-03-25T05:05:50;97063.44;;;9.10;64.53
2841;BME280;53423;49.224;12.074;2023-03-25T05:08:19;97056.56;;;9.17;64.70
2841;BME280;53423;49.224;12.074;2023-03-25T05:10:48;97067.81;;;9.18;64.53
2841;BME280;53423;49.224;12.074;2023-03-25T05:13:16;97068.63;;;9.18;63.74
2841;BME280;53423;49.224;12.074;2023-03-25T05:15:46;97047.63;;;9.34;64.00
2841;BME280;53423;49.224;12.074;2023-03-25T05:18:16;97058.19;;;9.18;63.67
2841;BME280;53423;49.224;12.074;2023-03-25T05:20:45;97062.41;;;9.19;64.28
2841;BME280;53423;49.224;12.074;2023-03-25T05:23:16;97066.53;;;9.44;63.35
2841;BME280;53423;49.224;12.074;2023-03-25T05:25:45;97070.56;;;9.55;62.62
2841;BME280;53423;49.224;12.074;2023-03-25T05:28:15;97079.75;;;9.73;63.09
2841;BME280;53423;49.224;12.074;2023-03-25T05:30:44;97090.16;;;9.81;63.23
2841;BME280;53423;49.224;12.074;2023-03-25T05:33:15;97077.50;;;9.70;63.96
2841;BME280;53423;49.224;12.074;2023-03-25T05:35:44;97078.16;;;9.42;65.84
2841;BME280;53423;49.224;12.074;2023-03-25T05:38:13;97083.59;;;9.32;66.18
2841;BME280;53423;49.224;12.074;2023-03-25T05:40:44;97085.31;;;9.09;66.09
2841;BME280;53423;49.224;12.074;2023-03-25T05:43:13;97082.97;;;9.30;65.82
2841;BME280;53423;49.224;12.074;2023-03-25T05:45:41;97101.63;;;9.27;64.97
2841;BME280;53423;49.224;12.074;2023-03-25T05:48:10;97096.03;;;9.30;64.28
2841;BME280;53423;49.224;12.074;2023-03-25T05:50:39;97112.53;;;9.31;64.53
2841;BME280;53423;49.224;12.074;2023-03-25T05:53:10;97112.19;;;9.34;64.83
2841;BME280;53423;49.224;12.074;2023-03-25T05:55:39;97112.38;;;9.24;64.98
2841;BME280;53423;49.224;12.074;2023-03-25T05:58:06;97118.63;;;9.23;65.29
2841;BME280;53423;49.224;12.074;2023-03-25T06:00:35;97114.56;;;9.13;65.73
2841;BME280;53423;49.224;12.074;2023-03-25T06:03:05;97105.88;;;9.20;65.34
2841;BME280;53423;49.224;12.074;2023-03-25T06:05:33;97098.53;;;9.16;66.11
2841;BME280;53423;49.224;12.074;2023-03-25T06:08:03;97111.75;;;9.22;65.79
2841;BME280;53423;49.224;12.074;2023-03-25T06:10:31;97105.19;;;9.26;66.11
2841;BME280;53423;49.224;12.074;2023-03-25T06:12:59;97106.00;;;8.88;66.24
2841;BME280;53423;49.224;12.074;2023-03-25T06:15:28;97110.38;;;9.04;66.17
2841;BME280;53423;49.224;12.074;2023-03-25T06:17:59;97117.13;;;9.29;65.22
2841;BME280;53423;49.224;12.074;2023-03-25T06:20:27;97116.94;;;9.30;65.47
2841;BME280;53423;49.224;12.074;2023-03-25T06:22:55;97113.69;;;9.28;65.21
2841;BME280;53423;49.224;12.074;2023-03-25T06:25:24;97118.50;;;9.47;65.75
2841;BME280;53423;49.224;12.074;2023-03-25T06:27:54;97121.91;;;9.78;64.06
2841;BME280;53423;49.224;12.074;2023-03-25T06:30:24;97130.19;;;9.90;63.39
2841;BME280;53423;49.224;12.074;2023-03-25T06:32:52;97149.38;;;9.82;64.18
2841;BME280;53423;49.224;12.074;2023-03-25T06:35:21;97140.06;;;9.80;64.02
2841;BME280;53423;49.224;12.074;2023-03-25T06:37:49;97152.47;;;9.86;63.62
2841;BME280;53423;49.224;12.074;2023-03-25T06:40:17;97155.13;;;9.78;63.99
2841;BME280;53423;49.224;12.074;2023-03-25T06:42:47;97152.72;;;9.68;64.79
2841;BME280;53423;49.224;12.074;2023-03-25T06:45:15;97155.94;;;9.78;63.92
2841;BME280;53423;49.224;12.074;2023-03-25T06:47:42;97162.38;;;9.98;63.35
2841;BME280;53423;49.224;12.074;2023-03-25T06:50:10;97168.72;;;9.73;63.56
2841;BME280;53423;49.224;12.074;2023-03-25T06:52:38;97169.56;;;9.74;62.60
2841;BME280;53423;49.224;12.074;2023-03-25T06:55:07;97171.09;;;9.60;64.43
2841;BME280;53423;49.224;12.074;2023-03-25T06:57:35;97175.50;;;9.90;63.01
2841;BME280;53423;49.224;12.074;2023-03-25T07:00:06;97171.13;;;10.14;60.25
2841;BME280;53423;49.224;12.074;2023-03-25T07:02:35;97174.81;;;10.27;59.60
2841;BME280;53423;49.224;12.074;2023-03-25T07:05:04;97170.50;;;11.08;57.35
2841;BME280;53423;49.224;12.074;2023-03-25T07:07:32;97166.44;;;11.20;56.99
2841;BME280;53423;49.224;12.074;2023-03-25T07:09:59;97162.63;;;11.23;56.56
2841;BME280;53423;49.224;12.074;2023-03-25T07:12:28;97156.78;;;11.71;56.23
2841;BME280;53423;49.224;12.074;2023-03-25T07:14:56;97156.47;;;12.16;55.56
2841;BME280;53423;49.224;12.074;2023-03-25T07:17:25;97157.56;;;13.19;53.52
2841;BME280;53423;49.224;12.074;2023-03-25T07:19:53;97160.09;;;13.34;51.32
2841;BME280;53423;49.224;12.074;2023-03-25T07:22:21;97146.53;;;13.03;50.77
2841;BME280;53423;49.224;12.074;2023-03-25T07:24:49;97152.25;;;12.85;52.06
2841;BME280;53423;49.224;12.074;2023-03-25T07:27:17;97150.91;;;12.96;50.95
2841;BME280;53423;49.224;12.074;2023-03-25T07:29:45;97153.91;;;12.93;49.93
2841;BME280;53423;49.224;12.074;2023-03-25T07:32:13;97142.44;;;13.28;50.32
2841;BME280;53423;49.224;12.074;2023-03-25T07:34:43;97151.47;;;14.13;49.64
2841;BME280;53423;49.224;12.074;2023-03-25T07:37:10;97152.28;;;14.07;48.59
2841;BME280;53423;49.224;12.074;2023-03-25T07:39:38;97151.75;;;14.70;47.44
2841;BME280;53423;49.224;12.074;2023-03-25T07:42:06;97143.84;;;15.03;46.88
2841;BME280;53423;49.224;12.074;2023-03-25T07:44:34;97146.69;;;14.75;46.25
2841;BME280;53423;49.224;12.074;2023-03-25T07:47:02;97141.41;;;14.75;46.18
2841;BME280;53423;49.224;12.074;2023-03-25T07:49:30;97147.19;;;15.56;46.39
2841;BME280;53423;49.224;12.074;2023-03-25T07:51:59;97143.03;;;15.79;43.28
2841;BME280;53423;49.224;12.074;2023-03-25T07:54:27;97146.22;;;15.24;45.05
2841;BME280;53423;49.224;12.074;2023-03-25T07:56:55;97147.53;;;14.63;46.29
2841;BME280;53423;49.224;12.074;2023-03-25T07:59:23;97149.13;;;14.44;45.90
2841;BME280;53423;49.224;12.074;2023-03-25T08:01:54;97159.53;;;13.92;46.15
2841;BME280;53423;49.224;12.074;2023-03-25T08:04:22;97154.63;;;13.35;48.42
2841;BME280;53423;49.224;12.074;2023-03-25T08:06:50;97155.59;;;12.73;48.42
2841;BME280;53423;49.224;12.074;2023-03-25T08:09:19;97161.06;;;12.08;49.47
2841;BME280;53423;49.224;12.074;2023-03-25T08:11:47;97167.38;;;11.78;51.23
2841;BME280;53423;49.224;12.074;2023-03-25T08:14:16;97155.06;;;11.78;52.02
2841;BME280;53423;49.224;12.074;2023-03-25T08:16:45;97160.19;;;12.01;51.34
2841;BME280;53423;49.224;12.074;2023-03-25T08:19:13;97153.72;;;11.68;50.56
2841;BME280;53423;49.224;12.074;2023-03-25T08:21:41;97161.47;;;11.90;52.19
2841;BME280;53423;49.224;12.074;2023-03-25T08:24:08;97153.44;;;11.63;52.29
2841;BME280;53423;49.224;12.074;2023-03-25T08:26:38;97155.34;;;11.54;52.20
2841;BME280;53423;49.224;12.074;2023-03-25T08:29:06;97162.50;;;11.75;52.71
2841;BME280;53423;49.224;12.074;2023-03-25T08:31:35;97167.56;;;11.76;51.59
2841;BME280;53423;49.224;12.074;2023-03-25T08:34:04;97167.34;;;11.92;51.89
2841;BME280;53423;49.224;12.074;2023-03-25T08:36:32;97164.03;;;12.05;51.11
2841;BME280;53423;49.224;12.074;2023-03-25T08:39:05;97163.81;;;12.21;50.55
2841;BME280;53423;49.224;12.074;2023-03-25T08:41:38;97151.53;;;12.07;50.81
2841;BME280;53423;49.224;12.074;2023-03-25T08:44:07;97166.09;;;11.88;49.84
2841;BME280;53423;49.224;12.074;2023-03-25T08:46:35;97156.97;;;11.70;49.73
2841;BME280;53423;49.224;12.074;2023-03-25T08:49:03;97160.31;;;11.78;50.74
2841;BME280;53423;49.224;12.074;2023-03-25T08:51:32;97161.56;;;12.18;48.41
2841;BME280;53423;49.224;12.074;2023-03-25T08:54:00;97160.75;;;12.60;47.84
2841;BME280;53423;49.224;12.074;2023-03-25T08:56:28;97151.53;;;12.98;46.81
2841;BME280;53423;49.224;12.074;2023-03-25T08:58:57;97149.69;;;13.60;45.82
2841;BME280;53423;49.224;12.074;2023-03-25T09:01:25;97136.75;;;14.64;44.14
2841;BME280;53423;49.224;12.074;2023-03-25T09:03:53;97129.66;;;15.68;40.48
2841;BME280;53423;49.224;12.074;2023-03-25T09:06:23;97129.97;;;15.21;40.04
2841;BME280;53423;49.224;12.074;2023-03-25T09:08:51;97123.81;;;15.53;39.33
2841;BME280;53423;49.224;12.074;2023-03-25T09:11:21;97121.09;;;14.95;40.59
2841;BME280;53423;49.224;12.074;2023-03-25T09:14:03;97132.59;;;14.10;41.85
2841;BME280;53423;49.224;12.074;2023-03-25T09:16:32;97129.56;;;13.52;44.17
2841;BME280;53423;49.224;12.074;2023-03-25T09:19:00;97128.53;;;14.01;42.97
2841;BME280;53423;49.224;12.074;2023-03-25T09:21:28;97123.59;;;13.78;42.47
2841;BME280;53423;49.224;12.074;2023-03-25T09:23:56;97118.22;;;13.05;43.19
2841;BME280;53423;49.224;12.074;2023-03-25T09:26:24;97125.06;;;13.40;43.92
2841;BME280;53423;49.224;12.074;2023-03-25T09:28:53;97129.19;;;14.16;42.55
2841;BME280;53423;49.224;12.074;2023-03-25T09:31:23;97126.81;;;14.40;42.16
2841;BME280;53423;49.224;12.074;2023-03-25T09:33:51;97125.78;;;15.07;40.33
2841;BME280;53423;49.224;12.074;2023-03-25T09:36:19;97110.69;;;15.40;39.78
2841;BME280;53423;49.224;12.074;2023-03-25T09:38:47;97108.28;;;15.06;38.60
2841;BME280;53423;49.224;12.074;2023-03-25T09:41:28;97103.59;;;16.15;39.45
2841;BME280;53423;49.224;12.074;2023-03-25T09:44:04;97096.06;;;16.19;37.74
2841;BME280;53423;49.224;12.074;2023-03-25T09:46:37;97109.63;;;15.91;38.67
2841;BME280;53423;49.224;12.074;2023-03-25T09:49:11;97115.06;;;16.65;38.75
2841;BME280;53423;49.224;12.074;2023-03-25T09:51:42;97110.13;;;15.75;39.55
2841;BME280;53423;49.224;12.074;2023-03-25T09:54:16;97104.56;;;15.52;40.28
2841;BME280;53423;49.224;12.074;2023-03-25T09:56:47;97099.50;;;16.75;41.07
2841;BME280;53423;49.224;12.074;2023-03-25T09:59:18;97095.16;;;17.60;36.74
2841;BME280;53423;49.224;12.074;2023-03-25T10:01:53;97102.47;;;18.23;36.36
2841;BME280;53423;49.224;12.074;2023-03-25T10:04:43;97101.44;;;19.00;33.35
2841;BME280;53423;49.224;12.074;2023-03-25T10:07:26;97091.72;;;19.52;34.50
2841;BME280;53423;49.224;12.074;2023-03-25T10:10:02;97110.06;;;17.00;37.87
2841;BME280;53423;49.224;12.074;2023-03-25T10:12:37;97115.66;;;16.67;38.47
2841;BME280;53423;49.224;12.074;2023-03-25T10:15:20;97106.94;;;15.98;40.50
2841;BME280;53423;49.224;12.074;2023-03-25T10:18:10;97093.19;;;16.45;40.30
2841;BME280;53423;49.224;12.074;2023-03-25T10:20:51;97094.91;;;17.07;38.40
2841;BME280;53423;49.224;12.074;2023-03-25T10:23:29;97093.94;;;16.59;37.45
2841;BME280;53423;49.224;12.074;2023-03-25T10:26:02;97089.66;;;16.02;37.28
2841;BME280;53423;49.224;12.074;2023-03-25T10:28:39;97087.78;;;17.25;35.70
2841;BME280;53423;49.224;12.074;2023-03-25T10:31:14;97083.88;;;17.64;34.27
2841;BME280;53423;49.224;12.074;2023-03-25T10:33:48;97074.91;;;16.93;36.73
2841;BME280;53423;49.224;12.074;2023-03-25T10:36:21;97075.81;;;16.31;37.78
2841;BME280;53423;49.224;12.074;2023-03-25T10:38:54;97076.22;;;16.28;37.75
2841;BME280;53423;49.224;12.074;2023-03-25T10:41:25;97064.94;;;16.14;37.06
2841;BME280;53423;49.224;12.074;2023-03-25T10:43:53;97079.06;;;15.01;40.91
2841;BME280;53423;49.224;12.074;2023-03-25T10:46:27;97098.09;;;13.92;47.76
2841;BME280;53423;49.224;12.074;2023-03-25T10:48:58;97089.56;;;13.23;49.70
2841;BME280;53423;49.224;12.074;2023-03-25T10:51:28;97090.97;;;13.73;49.53
2841;BME280;53423;49.224;12.074;2023-03-25T10:53:57;97095.13;;;14.21;49.15
2841;BME280;53423;49.224;12.074;2023-03-25T10:56:28;97104.69;;;14.35;47.30
2841;BME280;53423;49.224;12.074;2023-03-25T10:59:01;97101.06;;;14.36;47.17
2841;BME280;53423;49.224;12.074;2023-03-25T11:01:35;97088.81;;;15.07;46.78
2841;BME280;53423;49.224;12.074;2023-03-25T11:04:08;97088.44;;;14.83;45.83
2841;BME280;53423;49.224;12.074;2023-03-25T11:06:38;97074.72;;;15.26;44.49
2841;BME280;53423;49.224;12.074;2023-03-25T11:09:22;97082.53;;;15.65;42.75
2841;BME280;53423;49.224;12.074;2023-03-25T11:11:51;97078.66;;;14.97;43.17
2841;BME280;53423;49.224;12.074;2023-03-25T11:14:22;97064.91;;;14.69;43.13
2841;BME280;53423;49.224;12.074;2023-03-25T11:16:54;97062.47;;;14.74;44.04
2841;BME280;53423;49.224;12.074;2023-03-25T11:19:27;97045.50;;;15.71;43.50
2841;BME280;53423;49.224;12.074;2023-03-25T11:21:57;97041.34;;;15.51;42.58
2841;BME280;53423;49.224;12.074;2023-03-25T11:24:31;97041.66;;;15.23;44.95
2841;BME280;53423;49.224;12.074;2023-03-25T11:27:00;97034.31;;;15.25;43.19
2841;BME280;53423;49.224;12.074;2023-03-25T11:29:30;97035.06;;;15.83;42.15
2841;BME280;53423;49.224;12.074;2023-03-25T11:32:05;97024.09;;;15.48;44.40
2841;BME280;53423;49.224;12.074;2023-03-25T11:34:35;97016.59;;;15.45;43.27
2841;BME280;53423;49.224;12.074;2023-03-25T11:37:15;97030.66;;;14.49;42.98
2841;BME280;53423;49.224;12.074;2023-03-25T11:39:48;97030.84;;;14.15;45.52
2841;BME280;53423;49.224;12.074;2023-03-25T11:42:26;97029.22;;;14.08;44.03
2841;BME280;53423;49.224;12.074;2023-03-25T11:44:55;97049.66;;;13.80;46.18
2841;BME280;53423;49.224;12.074;2023-03-25T11:47:26;97048.25;;;14.10;45.24
2841;BME280;53423;49.224;12.074;2023-03-25T11:49:59;97047.34;;;13.44;45.69
2841;BME280;53423;49.224;12.074;2023-03-25T11:52:35;97057.47;;;12.72;47.75
2841;BME280;53423;49.224;12.074;2023-03-25T11:55:15;97053.69;;;12.53;48.27
2841;BME280;53423;49.224;12.074;2023-03-25T11:57:45;97069.56;;;12.39;49.72
2841;BME280;53423;49.224;12.074;2023-03-25T12:00:27;97092.75;;;11.66;53.67
2841;BME280;53423;49.224;12.074;2023-03-25T12:03:02;97099.28;;;11.26;55.65
2841;BME280;53423;49.224;12.074;2023-03-25T12:05:32;97125.53;;;11.26;58.27
2841;BME280;53423;49.224;12.074;2023-03-25T12:08:10;97169.03;;;11.06;59.64
2841;BME280;53423;49.224;12.074;2023-03-25T12:10:48;97118.53;;;10.60;62.99
2841;BME280;53423;49.224;12.074;2023-03-25T12:13:38;97098.06;;;11.72;60.08
2841;BME280;53423;49.224;12.074;2023-03-25T12:16:19;97089.25;;;12.77;59.21
2841;BME280;53423;49.224;12.074;2023-03-25T12:19:04;97085.88;;;13.71;62.47
2841;BME280;53423;49.224;12.074;2023-03-25T12:21:50;97083.81;;;13.47;57.26
2841;BME280;53423;49.224;12.074;2023-03-25T12:24:31;97071.50;;;13.60;54.50
2841;BME280;53423;49.224;12.074;2023-03-25T12:27:13;97069.28;;;13.64;56.20
2841;BME280;53423;49.224;12.074;2023-03-25T12:29:46;97064.88;;;13.91;55.37
2841;BME280;53423;49.224;12.074;2023-03-25T12:32:30;97047.06;;;13.99;54.10
2841;BME280;53423;49.224;12.074;2023-03-25T12:35:14;97042.75;;;13.72;55.24
2841;BME280;53423;49.224;12.074;2023-03-25T12:38:00;97057.34;;;13.21;56.21
2841;BME280;53423;49.224;12.074;2023-03-25T12:40:49;97040.06;;;13.52;54.74
2841;BME280;53423;49.224;12.074;2023-03-25T12:43:26;97031.34;;;13.45;55.04
2841;BME280;53423;49.224;12.074;2023-03-25T12:46:04;97025.78;;;14.01;55.54
2841;BME280;53423;49.224;12.074;2023-03-25T12:48:45;97026.59;;;14.14;56.92
2841;BME280;53423;49.224;12.074;2023-03-25T12:51:23;97012.63;;;14.27;55.52
2841;BME280;53423;49.224;12.074;2023-03-25T12:54:04;97012.19;;;14.23;53.75
2841;BME280;53423;49.224;12.074;2023-03-25T12:56:44;97013.78;;;14.70;53.89
2841;BME280;53423;49.224;12.074;2023-03-25T12:59:37;97006.72;;;14.44;53.90
2841;BME280;53423;49.224;12.074;2023-03-25T13:02:26;97000.00;;;14.48;53.30
2841;BME280;53423;49.224;12.074;2023-03-25T13:05:04;96999.63;;;14.51;52.64
2841;BME280;53423;49.224;12.074;2023-03-25T13:07:39;97001.69;;;15.07;50.05
2841;BME280;53423;49.224;12.074;2023-03-25T13:10:16;97007.63;;;14.95;51.10
2841;BME280;53423;49.224;12.074;2023-03-25T13:12:47;97010.78;;;15.24;50.66
2841;BME280;53423;49.224;12.074;2023-03-25T13:15:20;97002.41;;;15.40;50.13
2841;BME280;53423;49.224;12.074;2023-03-25T13:17:56;97013.88;;;15.08;50.06
2841;BME280;53423;49.224;12.074;2023-03-25T13:20:25;97004.31;;;15.13;49.15
2841;BME280;53423;49.224;12.074;2023-03-25T13:22:56;96993.31;;;14.13;49.60
2841;BME280;53423;49.224;12.074;2023-03-25T13:25:33;96989.06;;;14.45;51.73
2841;BME280;53423;49.224;12.074;2023-03-25T13:28:05;96984.81;;;14.44;49.01
2841;BME280;53423;49.224;12.074;2023-03-25T13:30:38;96989.84;;;14.71;50.01
2841;BME280;53423;49.224;12.074;2023-03-25T13:33:12;96991.47;;;14.66;48.85